createdAt,value
2019-06-01T00:00:42.203Z,81.13
2019-06-01T00:01:42.412Z,81.24
2019-06-01T00:02:44.229Z,81.24
2019-06-01T00:03:42.680Z,81.24
2019-06-01T00:04:42.972Z,81.13
2019-06-01T00:05:42.561Z,81.24
2019-06-01T00:06:42.818Z,81.13
2019-06-01T00:07:42.897Z,81.04
2019-06-01T00:08:43.052Z,81.04
2019-06-01T00:09:42.847Z,81.13
2019-06-01T00:10:41.601Z,81.13
2019-06-01T00:11:41.651Z,81.34
2019-06-01T00:12:41.586Z,81.48
2019-06-01T00:13:41.600Z,81.38
2019-06-01T00:14:41.743Z,81.27
2019-06-01T00:15:41.918Z,81.27
2019-06-01T00:16:41.985Z,81.38
2019-06-01T00:17:41.889Z,81.58
2019-06-01T00:18:41.825Z,81.38
2019-06-01T00:19:41.976Z,81.27
2019-06-01T00:20:42.233Z,81.38
2019-06-01T00:21:41.493Z,81.58
2019-06-01T00:22:41.481Z,81.78
2019-06-01T00:23:42.466Z,81.58
2019-06-01T00:24:41.747Z,81.38
2019-06-01T00:25:42.585Z,81.27
2019-06-01T00:26:41.731Z,81.48
2019-06-01T00:27:42.430Z,81.58
2019-06-01T00:28:41.706Z,81.68
2019-06-01T00:29:42.523Z,81.68
2019-06-01T00:30:41.661Z,81.68
2019-06-01T00:31:41.388Z,81.68
2019-06-01T00:32:41.368Z,81.68
2019-06-01T00:33:41.364Z,81.68
2019-06-01T00:34:41.357Z,81.68
2019-06-01T00:35:41.443Z,81.68
2019-06-01T00:36:41.525Z,81.58
2019-06-01T00:37:41.402Z,81.68
2019-06-01T00:38:41.693Z,81.78
2019-06-01T00:39:41.640Z,81.78
2019-06-01T00:40:41.717Z,81.78
2019-06-01T00:41:41.905Z,81.88
2019-06-01T00:42:42.010Z,81.99
2019-06-01T00:43:42.091Z,81.99
2019-06-01T00:44:42.114Z,82.19
2019-06-01T00:45:42.278Z,82.33
2019-06-01T00:46:42.449Z,82.33
2019-06-01T00:47:42.578Z,82.33
2019-06-01T00:48:41.225Z,82.53
2019-06-01T00:49:41.195Z,82.43
2019-06-01T00:50:41.201Z,82.23
2019-06-01T00:51:41.181Z,82.43
2019-06-01T00:52:41.152Z,82.43
2019-06-01T00:53:41.159Z,82.29
2019-06-01T00:54:41.142Z,82.19
2019-06-01T00:55:41.137Z,82.39
2019-06-01T00:56:41.119Z,82.29
2019-06-01T00:57:41.160Z,82.19
2019-06-01T00:58:41.091Z,81.99
2019-06-01T00:59:41.080Z,81.99
2019-06-01T01:00:45.199Z,81.99
2019-06-01T01:01:41.077Z,82.09
2019-06-01T01:02:41.051Z,82.09
2019-06-01T01:03:41.037Z,82.09
2019-06-01T01:04:41.028Z,81.99
2019-06-01T01:05:41.038Z,81.99
2019-06-01T01:06:41.007Z,81.99
2019-06-01T01:07:41.007Z,81.99
2019-06-01T01:08:41.008Z,82.09
2019-06-01T01:09:40.975Z,82.19
2019-06-01T01:10:40.964Z,82.39
2019-06-01T01:11:40.963Z,82.43
2019-06-01T01:12:40.963Z,82.53
2019-06-01T01:13:40.924Z,82.84
2019-06-01T01:14:40.943Z,82.84
2019-06-01T01:15:40.903Z,83.04
2019-06-01T01:16:40.944Z,83.14
2019-06-01T01:17:40.924Z,83.45
2019-06-01T01:18:40.941Z,83.54
2019-06-01T01:19:40.871Z,83.54
2019-06-01T01:20:40.860Z,83.54
2019-06-01T01:21:40.840Z,83.65
2019-06-01T01:22:40.854Z,83.54
2019-06-01T01:23:40.843Z,83.65
2019-06-01T01:24:40.821Z,83.75
2019-06-01T01:25:40.805Z,83.85
2019-06-01T01:26:40.788Z,83.75
2019-06-01T01:27:40.786Z,83.65
2019-06-01T01:28:40.789Z,83.75
2019-06-01T01:29:40.766Z,83.75
2019-06-01T01:30:40.757Z,83.95
2019-06-01T01:31:40.738Z,83.85
2019-06-01T01:32:40.737Z,83.95
2019-06-01T01:33:40.717Z,84.05
2019-06-01T01:34:40.746Z,83.95
2019-06-01T01:35:40.707Z,83.99
2019-06-01T01:36:40.708Z,84.09
2019-06-01T01:37:40.729Z,84.20
2019-06-01T01:38:40.665Z,84.20
2019-06-01T01:39:40.652Z,84.40
2019-06-01T01:40:40.647Z,84.50
2019-06-01T01:41:40.643Z,84.60
2019-06-01T01:42:40.639Z,84.80
2019-06-01T01:43:40.602Z,85.01
2019-06-01T01:44:40.595Z,85.11
2019-06-01T01:45:40.592Z,85.25
2019-06-01T01:46:40.591Z,85.35
2019-06-01T01:47:40.584Z,85.46
2019-06-01T01:48:40.551Z,85.66
2019-06-01T01:49:40.580Z,85.66
2019-06-01T01:50:40.540Z,85.55
2019-06-01T01:51:40.521Z,85.66
2019-06-01T01:52:40.510Z,85.86
2019-06-01T01:53:40.515Z,85.96
2019-06-01T01:54:40.509Z,86.07
2019-06-01T01:55:40.499Z,86.07
2019-06-01T01:56:40.470Z,86.16
2019-06-01T01:57:40.459Z,86.16
2019-06-01T01:58:40.461Z,86.27
2019-06-01T01:59:40.436Z,86.37
2019-06-01T02:00:40.437Z,86.57
2019-06-01T02:01:40.406Z,86.71
2019-06-01T02:02:40.416Z,86.71
2019-06-01T02:03:40.395Z,86.92
2019-06-01T02:04:40.388Z,86.92
2019-06-01T02:05:40.374Z,86.92
2019-06-01T02:06:40.364Z,87.02
2019-06-01T02:07:40.354Z,87.12
2019-06-01T02:08:40.353Z,87.12
2019-06-01T02:09:40.332Z,87.23
2019-06-01T02:10:40.364Z,87.32
2019-06-01T02:11:40.323Z,87.43
2019-06-01T02:12:40.311Z,87.63
2019-06-01T02:13:40.300Z,87.73
2019-06-01T02:14:40.297Z,87.73
2019-06-01T02:15:40.286Z,87.93
2019-06-01T02:16:40.302Z,87.93
2019-06-01T02:17:40.274Z,87.93
2019-06-01T02:18:40.258Z,87.93
2019-06-01T02:19:40.219Z,87.93
2019-06-01T02:20:40.221Z,88.04
2019-06-01T02:21:40.229Z,87.93
2019-06-01T02:22:40.197Z,87.84
2019-06-01T02:23:40.209Z,87.73
2019-06-01T02:24:40.170Z,87.63
2019-06-01T02:25:40.157Z,87.73
2019-06-01T02:26:40.168Z,87.63
2019-06-01T02:27:40.138Z,87.53
2019-06-01T02:28:40.126Z,87.63
2019-06-01T02:29:40.126Z,87.63
2019-06-01T02:30:40.113Z,87.63
2019-06-01T02:31:42.728Z,87.63
2019-06-01T02:32:40.086Z,87.63
2019-06-01T02:33:40.085Z,87.63
2019-06-01T02:34:40.073Z,87.73
2019-06-01T02:35:40.055Z,87.73
2019-06-01T02:36:40.049Z,87.93
2019-06-01T02:37:40.033Z,87.93
2019-06-01T02:38:40.045Z,87.93
2019-06-01T02:39:40.018Z,88.04
2019-06-01T02:40:40.005Z,88.13
2019-06-01T02:41:39.995Z,88.18
2019-06-01T02:42:39.991Z,88.28
2019-06-01T02:43:39.982Z,88.48
2019-06-01T02:44:39.970Z,88.48
2019-06-01T02:45:39.954Z,88.48
2019-06-01T02:46:39.943Z,88.59
2019-06-01T02:47:39.944Z,88.79
2019-06-01T02:48:39.922Z,88.79
2019-06-01T02:49:39.928Z,88.79
2019-06-01T02:50:39.899Z,88.75
2019-06-01T02:51:39.887Z,88.75
2019-06-01T02:52:39.903Z,88.75
2019-06-01T02:53:39.870Z,88.85
2019-06-01T02:54:39.852Z,88.85
2019-06-01T02:55:39.847Z,88.75
2019-06-01T02:56:39.837Z,88.65
2019-06-01T02:57:39.833Z,88.75
2019-06-01T02:58:39.823Z,88.65
2019-06-01T02:59:39.818Z,88.75
2019-06-01T03:00:39.796Z,88.75
2019-06-01T03:01:55.967Z,88.75
2019-06-01T03:02:40.796Z,88.65
2019-06-01T03:03:39.754Z,88.79
2019-06-01T03:04:39.744Z,88.79
2019-06-01T03:05:39.746Z,88.79
2019-06-01T03:06:39.766Z,88.89
2019-06-01T03:07:39.714Z,89.00
2019-06-01T03:08:39.721Z,89.09
2019-06-01T03:09:39.693Z,89.20
2019-06-01T03:10:39.681Z,89.20
2019-06-01T03:11:39.691Z,89.30
2019-06-01T03:12:39.669Z,89.30
2019-06-01T03:13:39.691Z,89.30
2019-06-01T03:14:39.641Z,89.34
2019-06-01T03:15:39.632Z,89.30
2019-06-01T03:16:40.371Z,89.44
2019-06-01T03:17:39.609Z,89.44
2019-06-01T03:18:39.631Z,89.50
2019-06-01T03:19:39.588Z,89.50
2019-06-01T03:20:39.568Z,89.50
2019-06-01T03:21:39.579Z,89.50
2019-06-01T03:23:48.631Z,89.70
2019-06-01T03:24:48.451Z,89.81
2019-06-01T03:25:48.441Z,89.85
2019-06-01T03:26:48.442Z,89.95
2019-06-01T03:27:48.424Z,90.05
2019-06-01T03:28:48.409Z,90.16
2019-06-01T03:29:48.449Z,90.25
2019-06-01T03:30:48.390Z,90.16
2019-06-01T03:31:48.427Z,90.16
2019-06-01T03:32:48.371Z,90.16
2019-06-01T03:33:48.358Z,90.16
2019-06-01T03:34:48.351Z,90.16
2019-06-01T03:35:48.337Z,90.16
2019-06-01T03:36:48.326Z,90.16
2019-06-01T03:37:48.335Z,90.25
2019-06-01T03:38:48.323Z,90.25
2019-06-01T03:39:48.300Z,90.46
2019-06-01T03:40:48.299Z,90.46
2019-06-01T03:41:48.270Z,90.46
2019-06-01T03:42:48.293Z,90.46
2019-06-01T03:43:48.255Z,90.46
2019-06-01T03:44:48.286Z,90.46
2019-06-01T03:45:48.267Z,90.36
2019-06-01T03:46:48.224Z,90.16
2019-06-01T03:47:48.242Z,90.05
2019-06-01T03:48:48.194Z,89.95
2019-06-01T03:49:48.183Z,89.85
2019-06-01T03:50:48.174Z,89.75
2019-06-01T03:51:48.163Z,89.75
2019-06-01T03:52:48.170Z,89.54
2019-06-01T03:53:48.142Z,89.64
2019-06-01T03:54:48.682Z,89.64
2019-06-01T03:55:48.123Z,89.61
2019-06-01T03:56:48.119Z,89.61
2019-06-01T03:57:48.098Z,89.50
2019-06-01T03:58:48.099Z,89.61
2019-06-01T03:59:48.090Z,89.70
2019-06-01T04:00:48.085Z,89.50
2019-06-01T04:01:48.073Z,89.40
2019-06-01T04:02:48.045Z,89.40
2019-06-01T04:03:48.039Z,89.30
2019-06-01T04:04:48.019Z,89.20
2019-06-01T04:05:48.029Z,89.00
2019-06-01T04:06:48.024Z,88.89
2019-06-01T04:07:47.994Z,88.79
2019-06-01T04:08:47.977Z,88.59
2019-06-01T04:09:48.009Z,88.48
2019-06-01T04:10:47.990Z,88.48
2019-06-01T04:11:47.954Z,88.48
2019-06-01T04:12:47.972Z,88.59
2019-06-01T04:13:47.943Z,88.69
2019-06-01T04:14:47.911Z,88.69
2019-06-01T04:15:47.956Z,88.69
2019-06-01T04:16:48.655Z,88.79
2019-06-01T04:17:47.892Z,88.69
2019-06-01T04:18:47.872Z,88.69
2019-06-01T04:19:47.862Z,88.69
2019-06-01T04:20:47.852Z,88.48
2019-06-01T04:21:47.861Z,88.24
2019-06-01T04:22:47.829Z,88.24
2019-06-01T04:23:47.827Z,88.13
2019-06-01T04:24:47.810Z,88.13
2019-06-01T04:25:47.798Z,88.13
2019-06-01T04:26:47.800Z,88.04
2019-06-01T04:27:47.769Z,87.93
2019-06-01T04:28:47.768Z,87.73
2019-06-01T04:29:47.779Z,87.63
2019-06-01T04:30:47.754Z,87.49
2019-06-01T04:31:47.742Z,87.18
2019-06-01T04:32:50.228Z,86.77
2019-06-01T04:33:47.718Z,86.33
2019-06-01T04:34:47.716Z,85.68
2019-06-01T04:35:47.687Z,85.17
2019-06-01T04:36:47.693Z,84.72
2019-06-01T04:37:47.672Z,84.22
2019-06-01T04:38:47.673Z,83.81
2019-06-01T04:39:47.645Z,83.71
2019-06-01T04:40:47.655Z,83.51
2019-06-01T04:41:47.623Z,82.96
2019-06-01T04:42:47.645Z,82.66
2019-06-01T04:43:47.620Z,82.45
2019-06-01T04:44:47.593Z,82.05
2019-06-01T04:45:47.590Z,82.05
2019-06-01T04:46:47.571Z,82.25
2019-06-01T04:47:47.571Z,82.70
2019-06-01T04:48:47.562Z,82.56
2019-06-01T04:49:47.542Z,82.01
2019-06-01T04:50:47.529Z,81.30
2019-06-01T04:51:47.519Z,81.10
2019-06-01T04:52:47.614Z,81.40
2019-06-01T04:53:47.526Z,81.81
2019-06-01T04:54:47.488Z,82.25
2019-06-01T04:55:47.480Z,82.56
2019-06-01T04:56:47.469Z,82.76
2019-06-01T04:57:47.459Z,82.86
2019-06-01T04:58:47.462Z,82.96
2019-06-01T04:59:47.447Z,83.06
2019-06-01T05:00:47.425Z,83.17
2019-06-01T05:01:47.417Z,83.17
2019-06-01T05:02:47.440Z,83.17
2019-06-01T05:03:47.395Z,83.06
2019-06-01T05:04:47.445Z,82.96
2019-06-01T05:05:47.378Z,83.06
2019-06-01T05:06:47.364Z,83.06
2019-06-01T05:07:47.344Z,82.92
2019-06-01T05:08:47.362Z,82.72
2019-06-01T05:09:47.343Z,82.62
2019-06-01T05:10:47.323Z,82.72
2019-06-01T05:11:47.355Z,82.52
2019-06-01T05:12:47.294Z,82.52
2019-06-01T05:13:47.293Z,82.38
2019-06-01T05:14:47.272Z,82.38
2019-06-01T05:15:47.266Z,82.28
2019-06-01T05:16:47.250Z,81.97
2019-06-01T05:17:47.241Z,81.73
2019-06-01T05:18:47.250Z,81.32
2019-06-01T05:19:47.244Z,80.88
2019-06-01T05:20:47.211Z,80.47
2019-06-01T05:21:47.199Z,80.13
2019-06-01T05:22:47.189Z,79.63
2019-06-01T05:23:47.177Z,78.55
2019-06-01T05:24:47.182Z,76.75
2019-06-01T05:25:47.167Z,73.92
2019-06-01T05:26:47.148Z,72.04
2019-06-01T05:27:47.137Z,71.20
2019-06-01T05:28:47.134Z,69.96
2019-06-01T05:29:47.117Z,68.62
2019-06-01T05:30:47.097Z,68.48
2019-06-01T05:31:47.086Z,67.74
2019-06-01T05:32:47.124Z,66.71
2019-06-01T05:33:47.075Z,66.24
2019-06-01T05:34:47.067Z,66.24
2019-06-01T05:35:47.046Z,66.97
2019-06-01T05:36:47.035Z,67.18
2019-06-01T05:37:47.034Z,67.18
2019-06-01T05:38:47.024Z,68.11
2019-06-01T05:39:47.036Z,69.05
2019-06-01T05:40:46.996Z,69.25
2019-06-01T05:42:55.953Z,69.02
2019-06-01T05:43:55.893Z,67.47
2019-06-01T05:44:55.888Z,66.64
2019-06-01T05:45:55.869Z,65.94
2019-06-01T05:46:55.856Z,65.07
2019-06-01T05:47:55.880Z,63.17
2019-06-01T05:48:55.835Z,61.64
2019-06-01T05:49:55.832Z,59.32
2019-06-01T05:50:55.821Z,56.11
2019-06-01T05:51:55.807Z,53.49
2019-06-01T05:52:55.785Z,51.03
2019-06-01T05:53:55.783Z,49.68
2019-06-01T05:54:55.773Z,49.93
2019-06-01T05:55:55.762Z,50.98
2019-06-01T05:56:55.743Z,52.74
2019-06-01T05:57:55.739Z,55.02
2019-06-01T05:58:55.722Z,56.79
2019-06-01T05:59:55.742Z,58.25
2019-06-01T06:00:55.702Z,59.58
2019-06-01T06:01:55.692Z,59.68
2019-06-01T06:02:55.692Z,58.02
2019-06-01T06:03:55.674Z,57.39
2019-06-01T06:04:55.693Z,57.19
2019-06-01T06:05:55.655Z,57.62
2019-06-01T06:06:55.640Z,58.45
2019-06-01T06:07:55.631Z,59.91
2019-06-01T06:08:55.620Z,61.04
2019-06-01T06:09:55.623Z,62.10
2019-06-01T06:10:55.599Z,62.37
2019-06-01T06:11:55.595Z,62.70
2019-06-01T06:12:55.584Z,63.33
2019-06-01T06:13:55.568Z,63.96
2019-06-01T06:14:55.634Z,65.00
2019-06-01T06:15:55.558Z,66.03
2019-06-01T06:16:55.538Z,66.64
2019-06-01T06:17:55.518Z,67.04
2019-06-01T06:18:55.516Z,66.77
2019-06-01T06:19:55.506Z,66.64
2019-06-01T06:20:55.527Z,66.64
2019-06-01T06:21:55.498Z,66.51
2019-06-01T06:22:55.797Z,66.20
2019-06-01T06:23:55.468Z,65.77
2019-06-01T06:24:55.445Z,65.57
2019-06-01T06:25:55.435Z,65.47
2019-06-01T06:26:55.440Z,65.04
2019-06-01T06:27:55.419Z,65.07
2019-06-01T06:28:55.416Z,65.30
2019-06-01T06:29:55.395Z,66.31
2019-06-01T06:30:55.389Z,66.41
2019-06-01T06:31:55.390Z,65.97
2019-06-01T06:32:55.379Z,65.14
2019-06-01T06:33:57.021Z,64.21
2019-06-01T06:34:55.344Z,63.28
2019-06-01T06:35:55.346Z,62.44
2019-06-01T06:36:55.323Z,62.31
2019-06-01T06:37:55.303Z,62.11
2019-06-01T06:38:55.303Z,61.58
2019-06-01T06:39:55.295Z,60.45
2019-06-01T06:40:55.278Z,59.19
2019-06-01T06:41:55.401Z,57.21
2019-06-01T06:42:55.278Z,55.01
2019-06-01T06:43:55.241Z,53.46
2019-06-01T06:44:55.233Z,52.12
2019-06-01T06:45:55.220Z,51.17
2019-06-01T06:46:55.231Z,49.96
2019-06-01T06:47:55.200Z,48.82
2019-06-01T06:48:55.199Z,48.54
2019-06-01T06:49:55.184Z,49.24
2019-06-01T06:50:55.180Z,49.04
2019-06-01T06:51:55.184Z,49.14
2019-06-01T06:52:55.153Z,48.25
2019-06-01T06:53:55.138Z,48.65
2019-06-01T06:54:55.129Z,47.50
2019-06-01T06:55:55.128Z,45.31
2019-06-01T06:56:55.106Z,42.83
2019-06-01T06:57:55.103Z,42.30
2019-06-01T06:58:55.099Z,41.51
2019-06-01T06:59:55.067Z,41.31
2019-06-01T07:00:55.063Z,42.44
2019-06-01T07:01:55.047Z,43.80
2019-06-01T07:02:55.067Z,47.11
2019-06-01T07:03:55.054Z,48.54
2019-06-01T07:04:55.025Z,49.91
2019-06-01T07:05:55.018Z,50.20
2019-06-01T07:06:54.996Z,48.14
2019-06-01T07:07:55.000Z,47.75
2019-06-01T07:08:54.997Z,50.23
2019-06-01T07:09:54.994Z,49.76
2019-06-01T07:10:54.965Z,46.03
2019-06-01T07:11:54.966Z,43.03
2019-06-01T07:12:54.936Z,40.58
2019-06-01T07:13:54.935Z,39.05
2019-06-01T07:14:54.936Z,37.93
2019-06-01T07:15:54.905Z,37.30
2019-06-01T07:16:54.894Z,36.29
2019-06-01T07:17:54.903Z,36.19
2019-06-01T07:18:54.874Z,35.97
2019-06-01T07:19:54.874Z,35.49
2019-06-01T07:20:54.864Z,35.17
2019-06-01T07:21:54.844Z,35.41
2019-06-01T07:22:54.833Z,34.90
2019-06-01T07:23:54.833Z,34.88
2019-06-01T07:24:54.843Z,34.45
2019-06-01T07:25:54.803Z,34.45
2019-06-01T07:26:54.807Z,34.05
2019-06-01T07:27:54.829Z,33.74
2019-06-01T07:28:55.223Z,33.25
2019-06-01T07:29:54.778Z,32.95
2019-06-01T07:30:54.753Z,33.05
2019-06-01T07:31:54.744Z,33.05
2019-06-01T07:32:54.752Z,33.15
2019-06-01T07:33:54.723Z,33.25
2019-06-01T07:34:54.711Z,33.15
2019-06-01T07:35:56.689Z,33.15
2019-06-01T07:36:54.706Z,33.15
2019-06-01T07:37:54.689Z,33.25
2019-06-01T07:38:54.671Z,32.86
2019-06-01T07:39:54.690Z,32.97
2019-06-01T07:40:54.660Z,33.17
2019-06-01T07:41:54.676Z,34.49
2019-06-01T07:42:54.630Z,34.77
2019-06-01T07:43:54.620Z,33.56
2019-06-01T07:44:54.631Z,33.36
2019-06-01T07:45:54.620Z,34.18
2019-06-01T07:46:54.609Z,33.67
2019-06-01T07:47:54.580Z,32.86
2019-06-01T07:48:54.630Z,32.45
2019-06-01T07:49:54.559Z,33.25
2019-06-01T07:50:54.571Z,33.36
2019-06-01T07:51:54.585Z,34.41
2019-06-01T07:52:54.529Z,34.06
2019-06-01T07:53:54.538Z,34.08
2019-06-01T07:54:54.528Z,34.06
2019-06-01T07:55:54.538Z,32.99
2019-06-01T07:56:54.507Z,33.29
2019-06-01T07:57:54.506Z,33.70
2019-06-01T07:58:54.478Z,33.59
2019-06-01T07:59:54.472Z,33.80
2019-06-01T08:00:54.465Z,34.64
2019-06-01T08:01:54.456Z,34.95
2019-06-01T08:02:54.449Z,35.36
2019-06-01T08:03:54.427Z,35.03
2019-06-01T08:04:54.920Z,34.74
2019-06-01T08:05:54.407Z,34.03
2019-06-01T08:06:54.418Z,34.44
2019-06-01T08:07:54.397Z,34.23
2019-06-01T08:08:54.381Z,33.41
2019-06-01T08:09:54.367Z,34.95
2019-06-01T08:10:54.366Z,34.62
2019-06-01T08:11:54.366Z,34.00
2019-06-01T08:12:54.336Z,33.92
2019-06-01T08:13:54.326Z,33.84
2019-06-01T08:14:54.316Z,36.07
2019-06-01T08:15:54.316Z,35.23
2019-06-01T08:16:54.323Z,34.31
2019-06-01T08:17:54.293Z,34.01
2019-06-01T08:18:54.290Z,34.23
2019-06-01T08:19:54.276Z,34.31
2019-06-01T08:20:54.275Z,34.85
2019-06-01T08:21:54.279Z,35.34
2019-06-01T08:22:54.244Z,35.64
2019-06-01T08:23:54.241Z,35.34
2019-06-01T08:24:54.235Z,35.77
2019-06-01T08:25:54.221Z,35.99
2019-06-01T08:26:54.225Z,38.24
2019-06-01T08:27:54.194Z,37.18
2019-06-01T08:28:54.174Z,35.97
2019-06-01T08:29:54.175Z,35.55
2019-06-01T08:30:54.166Z,35.97
2019-06-01T08:31:55.923Z,36.07
2019-06-01T08:32:54.153Z,35.33
2019-06-01T08:33:54.153Z,33.90
2019-06-01T08:35:07.802Z,32.87
2019-06-01T08:35:55.124Z,34.33
2019-06-01T08:36:54.106Z,35.62
2019-06-01T08:37:54.102Z,35.14
2019-06-01T08:38:54.083Z,38.01
2019-06-01T08:39:54.071Z,35.95
2019-06-01T08:40:54.080Z,34.25
2019-06-01T08:41:54.061Z,34.13
2019-06-01T08:42:54.049Z,33.50
2019-06-01T08:43:54.034Z,34.34
2019-06-01T08:44:54.031Z,35.46
2019-06-01T08:45:54.020Z,35.13
2019-06-01T08:46:54.021Z,35.34
2019-06-01T08:47:54.021Z,35.34
2019-06-01T08:48:53.991Z,35.74
2019-06-01T08:49:53.980Z,35.41
2019-06-01T08:50:53.981Z,35.02
2019-06-01T08:51:53.951Z,35.33
2019-06-01T08:52:53.941Z,34.92
2019-06-01T08:53:53.942Z,35.74
2019-06-01T08:54:53.919Z,35.93
2019-06-01T08:55:53.939Z,35.33
2019-06-01T08:56:53.900Z,36.67
2019-06-01T08:57:53.900Z,37.24
2019-06-01T08:58:53.879Z,36.46
2019-06-01T08:59:53.879Z,36.13
2019-06-01T09:00:53.876Z,35.31
2019-06-01T09:01:53.859Z,36.67
2019-06-01T09:02:53.842Z,38.91
2019-06-01T09:03:53.838Z,38.58
2019-06-01T09:04:53.829Z,37.05
2019-06-01T09:05:53.826Z,36.44
2019-06-01T09:06:53.810Z,36.01
2019-06-01T09:07:53.800Z,36.03
2019-06-01T09:08:53.786Z,36.32
2019-06-01T09:09:53.777Z,36.83
2019-06-01T09:10:53.779Z,36.55
2019-06-01T09:11:53.758Z,36.87
2019-06-01T09:12:53.757Z,36.95
2019-06-01T09:13:53.737Z,36.77
2019-06-01T09:14:53.727Z,37.69
2019-06-01T09:15:53.716Z,37.67
2019-06-01T09:16:53.725Z,36.87
2019-06-01T09:17:53.697Z,36.44
2019-06-01T09:18:53.685Z,36.05
2019-06-01T09:19:53.676Z,37.59
2019-06-01T09:20:53.665Z,38.81
2019-06-01T09:21:53.676Z,38.60
2019-06-01T09:22:53.645Z,38.01
2019-06-01T09:23:53.640Z,37.57
2019-06-01T09:24:53.717Z,39.86
2019-06-01T09:25:53.626Z,39.20
2019-06-01T09:26:53.613Z,39.20
2019-06-01T09:27:53.603Z,38.79
2019-06-01T09:28:53.585Z,39.20
2019-06-01T09:29:53.573Z,40.33
2019-06-01T09:30:53.584Z,41.25
2019-06-01T09:31:53.554Z,41.79
2019-06-01T09:32:53.555Z,42.29
2019-06-01T09:33:53.524Z,43.21
2019-06-01T09:34:53.513Z,44.84
2019-06-01T09:35:56.232Z,45.85
2019-06-01T09:36:55.509Z,45.56
2019-06-01T09:37:53.493Z,46.57
2019-06-01T09:38:53.493Z,46.51
2019-06-01T09:39:53.475Z,47.11
2019-06-01T09:40:53.461Z,48.13
2019-06-01T09:41:53.442Z,48.37
2019-06-01T09:42:53.440Z,48.99
2019-06-01T09:43:53.440Z,49.78
2019-06-01T09:44:53.453Z,49.36
2019-06-01T09:45:53.728Z,48.77
2019-06-01T09:46:53.392Z,47.65
2019-06-01T09:47:53.391Z,47.45
2019-06-01T09:48:53.380Z,48.77
2019-06-01T09:49:53.361Z,49.38
2019-06-01T09:50:53.359Z,49.78
2019-06-01T09:51:53.370Z,49.88
2019-06-01T09:52:53.333Z,50.58
2019-06-01T09:53:53.321Z,50.78
2019-06-01T09:54:53.309Z,49.88
2019-06-01T09:55:53.306Z,50.08
2019-06-01T09:56:53.309Z,50.28
2019-06-01T09:57:53.281Z,50.60
2019-06-01T09:58:53.271Z,50.70
2019-06-01T09:59:53.286Z,49.83
2019-06-01T10:00:53.247Z,50.13
2019-06-01T10:01:53.238Z,50.95
2019-06-01T10:02:53.228Z,51.05
2019-06-01T10:03:53.228Z,50.85
2019-06-01T10:04:53.226Z,51.22
2019-06-01T10:06:01.972Z,50.63
2019-06-01T10:06:54.181Z,50.43
2019-06-01T10:07:53.197Z,51.35
2019-06-01T10:08:53.166Z,51.84
2019-06-01T10:09:53.158Z,52.04
2019-06-01T10:10:53.165Z,51.25
2019-06-01T10:11:53.126Z,51.57
2019-06-01T10:12:53.136Z,51.67
2019-06-01T10:13:53.106Z,51.89
2019-06-01T10:14:53.125Z,52.19
2019-06-01T10:15:53.085Z,52.29
2019-06-01T10:16:53.083Z,51.57
2019-06-01T10:17:53.076Z,51.37
2019-06-01T10:18:53.054Z,51.54
2019-06-01T10:19:53.065Z,51.47
2019-06-01T10:20:53.045Z,52.76
2019-06-01T10:21:53.032Z,52.76
2019-06-01T10:22:53.015Z,50.68
2019-06-01T10:23:53.013Z,50.27
2019-06-01T10:24:52.993Z,50.18
2019-06-01T10:25:53.010Z,50.87
2019-06-01T10:26:53.112Z,51.27
2019-06-01T10:27:52.980Z,51.27
2019-06-01T10:28:52.962Z,50.95
2019-06-01T10:29:52.942Z,51.25
2019-06-01T10:30:52.927Z,50.65
2019-06-01T10:31:52.919Z,51.05
2019-06-01T10:32:52.911Z,50.95
2019-06-01T10:33:52.911Z,50.57
2019-06-01T10:34:52.891Z,50.98
2019-06-01T10:35:52.891Z,50.90
2019-06-01T10:36:52.868Z,51.50
2019-06-01T10:37:52.850Z,51.97
2019-06-01T10:38:52.840Z,51.87
2019-06-01T10:39:52.838Z,50.87
2019-06-01T10:40:52.838Z,50.87
2019-06-01T10:41:52.819Z,50.55
2019-06-01T10:42:52.809Z,50.85
2019-06-01T10:43:52.807Z,50.75
2019-06-01T10:44:52.810Z,50.35
2019-06-01T10:45:52.768Z,50.35
2019-06-01T10:46:52.774Z,50.75
2019-06-01T10:47:52.757Z,51.25
2019-06-01T10:48:52.742Z,50.85
2019-06-01T10:49:52.726Z,50.45
2019-06-01T10:50:52.717Z,49.73
2019-06-01T10:51:52.717Z,50.03
2019-06-01T10:52:52.709Z,49.33
2019-06-01T10:53:52.709Z,49.43
2019-06-01T10:54:52.676Z,49.26
2019-06-01T10:55:52.665Z,50.15
2019-06-01T10:56:52.822Z,50.25
2019-06-01T10:57:52.645Z,49.85
2019-06-01T10:58:59.954Z,49.38
2019-06-01T10:59:53.614Z,49.58
2019-06-01T11:00:52.614Z,50.55
2019-06-01T11:01:52.622Z,50.65
2019-06-01T11:02:52.598Z,50.65
2019-06-01T11:03:52.575Z,50.85
2019-06-01T11:04:52.577Z,51.45
2019-06-01T11:05:52.563Z,51.15
2019-06-01T11:06:52.561Z,50.75
2019-06-01T11:07:52.552Z,50.95
2019-06-01T11:08:52.523Z,51.35
2019-06-01T11:09:52.522Z,51.35
2019-06-01T11:10:52.558Z,51.75
2019-06-01T11:11:52.501Z,51.05
2019-06-01T11:12:52.490Z,51.84
2019-06-01T11:13:52.471Z,52.14
2019-06-01T11:14:52.468Z,51.95
2019-06-01T11:15:52.469Z,51.95
2019-06-01T11:16:56.247Z,52.24
2019-06-01T11:17:52.430Z,52.32
2019-06-01T11:18:52.444Z,52.12
2019-06-01T11:19:52.410Z,51.52
2019-06-01T11:20:52.399Z,51.92
2019-06-01T11:21:52.442Z,51.70
2019-06-01T11:22:52.379Z,50.90
2019-06-01T11:23:52.378Z,50.50
2019-06-01T11:24:52.359Z,50.80
2019-06-01T11:25:52.349Z,50.38
2019-06-01T11:26:52.338Z,50.18
2019-06-01T11:27:52.332Z,50.18
2019-06-01T11:28:52.329Z,50.18
2019-06-01T11:29:52.308Z,51.47
2019-06-01T11:30:52.317Z,50.58
2019-06-01T11:31:52.287Z,50.48
2019-06-01T11:32:52.267Z,50.28
2019-06-01T11:33:52.285Z,50.68
2019-06-01T11:34:52.256Z,50.88
2019-06-01T11:35:52.249Z,51.30
2019-06-01T11:37:04.382Z,50.93
2019-06-01T11:37:53.225Z,51.15
2019-06-01T11:38:52.229Z,51.54
2019-06-01T11:39:52.197Z,51.35
2019-06-01T11:40:52.223Z,51.75
2019-06-01T11:41:52.175Z,52.14
2019-06-01T11:42:52.166Z,52.51
2019-06-01T11:43:52.164Z,51.72
2019-06-01T11:44:52.144Z,51.52
2019-06-01T11:45:52.154Z,51.22
2019-06-01T11:46:52.157Z,51.12
2019-06-01T11:47:52.114Z,51.22
2019-06-01T11:48:52.115Z,51.60
2019-06-01T11:49:52.093Z,51.30
2019-06-01T11:50:52.093Z,51.10
2019-06-01T11:51:52.105Z,51.40
2019-06-01T11:52:52.065Z,51.50
2019-06-01T11:53:52.053Z,50.50
2019-06-01T11:54:52.051Z,50.70
2019-06-01T11:55:52.031Z,50.60
2019-06-01T11:56:52.021Z,50.40
2019-06-01T11:57:52.009Z,50.28
2019-06-01T11:58:52.001Z,50.28
2019-06-01T11:59:52.004Z,49.88
2019-06-01T12:00:51.981Z,49.68
2019-06-01T12:01:52.071Z,49.29
2019-06-01T12:02:51.949Z,49.88
2019-06-01T12:03:51.958Z,49.91
2019-06-01T12:04:51.930Z,50.10
2019-06-01T12:05:51.929Z,50.43
2019-06-01T12:06:51.972Z,50.40
2019-06-01T12:07:51.898Z,51.00
2019-06-01T12:08:51.897Z,51.10
2019-06-01T12:09:51.878Z,50.80
2019-06-01T12:10:51.868Z,51.60
2019-06-01T12:11:51.991Z,52.79
2019-06-01T12:12:51.848Z,53.19
2019-06-01T12:13:51.847Z,52.96
2019-06-01T12:14:51.828Z,52.86
2019-06-01T12:15:51.818Z,52.47
2019-06-01T12:16:51.817Z,51.75
2019-06-01T12:17:51.799Z,51.65
2019-06-01T12:18:51.786Z,51.03
2019-06-01T12:19:51.776Z,49.46
2019-06-01T12:20:51.764Z,49.26
2019-06-01T12:21:51.847Z,49.44
2019-06-01T12:22:51.791Z,48.94
2019-06-01T12:23:51.748Z,49.63
2019-06-01T12:24:51.720Z,49.04
2019-06-01T12:25:51.714Z,49.76
2019-06-01T12:26:51.702Z,48.27
2019-06-01T12:27:51.694Z,48.47
2019-06-01T12:28:51.703Z,49.16
2019-06-01T12:29:52.650Z,49.98
2019-06-01T12:30:51.661Z,49.56
2019-06-01T12:31:51.669Z,48.66
2019-06-01T12:32:51.638Z,48.47
2019-06-01T12:33:51.642Z,48.66
2019-06-01T12:34:51.642Z,48.47
2019-06-01T12:35:51.602Z,48.49
2019-06-01T12:36:51.592Z,49.11
2019-06-01T12:38:05.637Z,50.55
2019-06-01T12:38:52.583Z,51.47
2019-06-01T12:39:54.219Z,52.17
2019-06-01T12:40:51.601Z,52.84
2019-06-01T12:41:51.828Z,52.24
2019-06-01T12:42:52.012Z,51.84
2019-06-01T12:43:51.884Z,52.84
2019-06-01T12:44:52.057Z,52.54
2019-06-01T12:46:05.418Z,52.24
2019-06-01T12:46:53.032Z,52.12
2019-06-01T12:47:57.585Z,52.22
2019-06-01T12:48:52.639Z,52.29
2019-06-01T12:49:52.704Z,51.79
2019-06-01T12:50:52.517Z,51.77
2019-06-01T12:51:52.916Z,51.87
2019-06-01T12:52:52.650Z,51.77
2019-06-01T12:53:52.728Z,52.17
2019-06-01T12:54:51.408Z,51.65